createdAt,value
2022-09-30T00:01:26.278Z,93294.22
2022-09-30T00:16:30.459Z,93296.47
2022-09-30T00:31:33.672Z,93320.22
2022-09-30T00:46:43.841Z,93292.19
2022-09-30T01:01:46.470Z,93303.38
2022-09-30T01:16:48.121Z,93299.91
2022-09-30T01:31:52.755Z,93308.09
2022-09-30T01:46:59.768Z,93303.94
2022-09-30T02:02:08.343Z,93300.66
2022-09-30T02:17:28.991Z,93314.88
2022-09-30T02:32:35.830Z,93316.00
2022-09-30T02:48:12.488Z,93307.41
2022-09-30T03:03:19.777Z,93323.97
2022-09-30T03:18:33.460Z,93337.69
2022-09-30T03:33:34.891Z,93343.69
2022-09-30T03:48:37.924Z,93352.47
2022-09-30T04:03:39.370Z,93361.50
2022-09-30T04:18:40.900Z,93349.41
2022-09-30T04:33:42.896Z,93365.69
2022-09-30T04:48:45.948Z,93375.69
2022-09-30T05:03:48.877Z,93407.09
2022-09-30T05:18:50.565Z,93404.69
2022-09-30T05:33:55.829Z,93421.16
2022-09-30T05:48:59.465Z,93444.91
2022-09-30T06:04:01.039Z,93458.13
2022-09-30T06:19:02.524Z,93472.22
2022-09-30T06:34:04.649Z,93468.84
2022-09-30T06:49:13.296Z,93505.56
2022-09-30T07:04:15.532Z,93530.59
2022-09-30T07:19:17.766Z,93544.41
2022-09-30T07:34:19.231Z,93570.38
2022-09-30T07:49:25.724Z,93573.28
2022-09-30T08:04:27.431Z,93582.66
2022-09-30T08:19:30.058Z,93600.00
2022-09-30T08:34:35.609Z,93604.97
2022-09-30T08:49:44.876Z,93619.25
2022-09-30T09:04:47.770Z,93622.34
2022-09-30T09:19:52.349Z,93628.72
2022-09-30T09:34:57.707Z,93637.25
2022-09-30T09:50:01.184Z,93634.56
2022-09-30T10:05:04.221Z,93643.75
2022-09-30T10:20:18.990Z,93625.13
2022-09-30T10:35:23.477Z,93597.00
2022-09-30T10:50:27.760Z,93621.53
2022-09-30T11:05:31.415Z,93625.16
2022-09-30T11:20:37.681Z,93624.44
2022-09-30T11:35:41.565Z,93624.69
2022-09-30T11:50:45.752Z,93623.63
2022-09-30T12:05:49.894Z,93643.56
2022-09-30T12:20:56.679Z,93656.78
2022-09-30T12:36:07.089Z,93656.31
2022-09-30T12:51:08.892Z,93655.31
2022-09-30T13:06:10.437Z,93657.69
2022-09-30T13:21:21.812Z,93659.03
2022-09-30T13:36:28.067Z,93666.44
2022-09-30T13:51:31.574Z,93666.34
2022-09-30T14:06:46.270Z,93661.63
2022-09-30T14:21:49.760Z,93690.56
2022-09-30T14:52:31.432Z,93714.31
2022-09-30T15:07:32.899Z,93731.13
2022-09-30T15:22:34.524Z,93742.41
2022-09-30T15:37:36.083Z,93771.50
2022-09-30T15:52:40.073Z,93790.47
2022-09-30T16:07:42.017Z,93809.78
2022-09-30T16:22:43.520Z,93812.34
2022-09-30T16:37:45.996Z,93808.94
2022-09-30T16:52:47.474Z,93825.97
2022-09-30T17:07:56.413Z,93834.94
2022-09-30T17:22:57.891Z,93836.91
2022-09-30T17:38:00.341Z,93831.81
2022-09-30T17:53:02.580Z,93871.06
2022-09-30T18:08:05.633Z,93884.28
2022-09-30T18:23:07.129Z,93892.34
2022-09-30T18:38:09.681Z,93893.41
2022-09-30T18:53:12.723Z,93890.72
2022-09-30T19:08:14.197Z,93901.75
2022-09-30T19:23:15.919Z,93926.03
2022-09-30T19:38:19.547Z,93915.16
2022-09-30T19:53:30.454Z,93943.22
2022-09-30T20:08:33.693Z,93921.84
2022-09-30T20:23:38.975Z,93935.84
2022-09-30T20:38:40.485Z,93954.47
2022-09-30T20:53:44.511Z,93961.84
2022-09-30T21:08:50.951Z,93972.94
2022-09-30T21:23:55.339Z,93974.78
2022-09-30T21:39:01.293Z,93982.69
2022-09-30T21:54:02.889Z,93995.34
2022-09-30T22:16:08.400Z,94025.22
2022-09-30T22:31:14.306Z,94022.50
2022-09-30T22:46:15.890Z,94033.59
2022-09-30T23:01:17.405Z,94043.00
2022-09-30T23:16:18.905Z,94056.34
2022-09-30T23:31:20.700Z,94048.50
2022-09-30T23:46:22.226Z,94041.91
